Time;durP1;ratioP1;P1;durP2;ratioP2;P2;SDS_P1;SDS_P2;PMS_P1;PMS_P2;Temp;Humidity;BMP_temperature;BMP_pressure;BME280_temperature;BME280_humidity;BME280_pressure;Samples;Min_cycle;Max_cycle;Signal;HPM_P1;HPM_P2
2022/02/27 00:02:05;;;;;;;16.80;8.10;;;;;;;;;;6215647;28;20199;-81
2022/02/27 00:05:07;;;;;;;16.88;7.70;;;;;;;;;;6214674;28;20045;-81
2022/02/27 00:08:09;;;;;;;15.43;8.35;;;;;;;;;;6217136;28;20069;-82
2022/02/27 00:11:11;;;;;;;20.55;7.65;;;;;;;;;;6222586;28;20104;-81
2022/02/27 00:14:12;;;;;;;17.85;8.27;;;;;;;;;;6255842;28;20128;-79
2022/02/27 00:17:14;;;;;;;14.45;6.07;;;;;;;;;;6240318;28;20388;-79
2022/02/27 00:20:16;;;;;;;12.63;6.43;;;;;;;;;;6235209;28;20546;-81
2022/02/27 00:23:18;;;;;;;15.70;6.20;;;;;;;;;;6238961;28;20124;-80
2022/02/27 00:26:19;;;;;;;20.23;6.18;;;;;;;;;;6231087;28;20562;-80
2022/02/27 00:29:21;;;;;;;15.95;5.78;;;;;;;;;;6215481;28;20053;-80
2022/02/27 00:32:23;;;;;;;16.47;6.10;;;;;;;;;;6216683;28;20070;-80
2022/02/27 00:35:25;;;;;;;14.80;6.70;;;;;;;;;;6227739;28;20183;-79
2022/02/27 00:38:27;;;;;;;17.90;7.32;;;;;;;;;;6239712;28;20057;-80
2022/02/27 00:41:28;;;;;;;18.23;7.40;;;;;;;;;;6237157;28;20048;-79
2022/02/27 00:44:31;;;;;;;14.23;7.18;;;;;;;;;;6240292;28;20049;-80
2022/02/27 00:47:33;;;;;;;15.98;6.15;;;;;;;;;;6258303;28;20183;-80
2022/02/27 00:50:35;;;;;;;10.40;6.20;;;;;;;;;;6221999;28;20061;-79
2022/02/27 00:53:37;;;;;;;15.90;6.93;;;;;;;;;;6211790;28;20042;-80
2022/02/27 00:56:38;;;;;;;14.05;7.30;;;;;;;;;;6225799;28;20045;-80
2022/02/27 00:59:44;;;;;;;18.67;7.70;;;;;;;;;;6243219;28;20042;-80
2022/02/27 01:02:46;;;;;;;13.43;7.00;;;;;;;;;;6256816;28;20050;-78
2022/02/27 01:05:48;;;;;;;16.42;7.40;;;;;;;;;;6242340;28;20053;-81
2022/02/27 01:08:50;;;;;;;16.52;7.57;;;;;;;;;;6242480;28;20054;-79
2022/02/27 01:11:52;;;;;;;20.63;9.10;;;;;;;;;;6247253;28;20050;-80
2022/02/27 01:14:53;;;;;;;11.93;7.45;;;;;;;;;;6218222;28;20038;-80
2022/02/27 01:17:55;;;;;;;11.43;6.65;;;;;;;;;;6236416;28;20046;-80
2022/02/27 01:20:57;;;;;;;17.27;6.40;;;;;;;;;;6250170;28;20042;-79
2022/02/27 01:23:59;;;;;;;13.35;6.57;;;;;;;;;;6243586;28;20363;-80
2022/02/27 01:27:00;;;;;;;15.60;6.90;;;;;;;;;;6241699;28;20060;-80
2022/02/27 01:30:05;;;;;;;12.43;6.50;;;;;;;;;;6259614;28;20129;-79
2022/02/27 01:33:07;;;;;;;12.65;6.38;;;;;;;;;;6245487;28;20045;-80
2022/02/27 01:36:08;;;;;;;15.82;7.18;;;;;;;;;;6219619;28;20053;-79
2022/02/27 01:39:10;;;;;;;14.38;6.10;;;;;;;;;;6218006;28;20042;-80
2022/02/27 01:42:14;;;;;;;16.17;6.70;;;;;;;;;;6222481;28;20479;-79
2022/02/27 01:45:15;;;;;;;12.30;6.53;;;;;;;;;;6237471;28;20046;-79
2022/02/27 01:48:17;;;;;;;14.65;6.40;;;;;;;;;;6266668;28;20559;-80
2022/02/27 01:51:18;;;;;;;17.15;6.45;;;;;;;;;;6257050;28;20099;-79
2022/02/27 01:54:21;;;;;;;13.65;6.38;;;;;;;;;;6260698;28;20042;-79
2022/02/27 01:57:23;;;;;;;20.83;6.97;;;;;;;;;;6238641;28;20124;-79
2022/02/27 02:00:26;;;;;;;13.05;6.20;;;;;;;;;;6245166;28;20049;-79
2022/02/27 02:03:28;;;;;;;11.20;6.13;;;;;;;;;;6234413;28;20045;-79
2022/02/27 02:06:29;;;;;;;12.98;5.68;;;;;;;;;;6239266;28;20061;-79
2022/02/27 02:09:31;;;;;;;15.10;5.68;;;;;;;;;;6235036;28;20061;-80
2022/02/27 02:12:33;;;;;;;14.55;6.43;;;;;;;;;;6201647;28;20045;-79
2022/02/27 02:15:37;;;;;;;18.30;6.47;;;;;;;;;;6235347;28;20041;-80
2022/02/27 02:18:39;;;;;;;18.98;6.68;;;;;;;;;;6248637;28;20056;-81
2022/02/27 02:21:45;;;;;;;13.20;5.72;;;;;;;;;;6240473;28;20097;-80
2022/02/27 02:24:50;;;;;;;14.48;5.60;;;;;;;;;;6259752;28;20041;-79
2022/02/27 02:27:51;;;;;;;11.73;5.20;;;;;;;;;;6224751;28;20041;-80
2022/02/27 02:30:53;;;;;;;14.80;5.43;;;;;;;;;;6243306;28;20052;-80
2022/02/27 02:33:56;;;;;;;12.57;5.75;;;;;;;;;;6243571;28;20038;-80
2022/02/27 02:36:58;;;;;;;17.75;6.10;;;;;;;;;;6225785;28;20045;-80
2022/02/27 02:40:00;;;;;;;19.85;8.63;;;;;;;;;;6251431;28;20048;-80
2022/02/27 02:43:03;;;;;;;;;;;;;;;;;;6246638;28;20045;-80
2022/02/27 02:46:04;;;;;;;76.35;22.35;;;;;;;;;;6255638;28;20392;-80
2022/02/27 02:49:08;;;;;;;38.78;12.80;;;;;;;;;;6218958;28;20046;-80
2022/02/27 02:52:25;;;;;;;11.00;7.10;;;;;;;;;;6243372;28;20053;-80
2022/02/27 02:55:27;;;;;;;21.23;9.60;;;;;;;;;;6256615;28;20454;-79
2022/02/27 02:58:29;;;;;;;24.77;11.25;;;;;;;;;;6245056;28;20366;-79
2022/02/27 03:01:31;;;;;;;22.45;9.70;;;;;;;;;;6246455;28;20091;-78
2022/02/27 03:04:36;;;;;;;26.38;9.52;;;;;;;;;;6243731;28;20513;-78
2022/02/27 03:07:39;;;;;;;24.15;8.75;;;;;;;;;;6246946;28;20108;-78
2022/02/27 03:10:40;;;;;;;16.70;8.27;;;;;;;;;;6246011;28;20057;-80
2022/02/27 03:13:42;;;;;;;15.55;7.30;;;;;;;;;;6261301;28;20049;-80
2022/02/27 03:16:44;;;;;;;15.40;7.53;;;;;;;;;;6248551;28;20045;-78
2022/02/27 03:19:46;;;;;;;15.55;7.82;;;;;;;;;;6248283;28;20053;-78
2022/02/27 03:22:48;;;;;;;16.00;7.65;;;;;;;;;;6246096;28;20053;-80
2022/02/27 03:25:50;;;;;;;19.83;8.90;;;;;;;;;;6244484;28;20136;-79
2022/02/27 03:28:51;;;;;;;17.20;7.43;;;;;;;;;;6246501;28;20100;-80
2022/02/27 03:31:54;;;;;;;16.00;7.88;;;;;;;;;;6246430;28;20068;-79
2022/02/27 03:34:56;;;;;;;16.08;8.00;;;;;;;;;;6245812;28;20050;-80
2022/02/27 03:37:57;;;;;;;16.85;7.25;;;;;;;;;;6262939;28;20103;-77
2022/02/27 03:40:59;;;;;;;12.82;5.97;;;;;;;;;;6244451;28;20059;-81
2022/02/27 03:44:01;;;;;;;10.95;5.63;;;;;;;;;;6263278;28;20049;-80
2022/02/27 03:47:03;;;;;;;28.50;10.90;;;;;;;;;;6260674;28;20045;-81
2022/02/27 03:50:05;;;;;;;20.10;8.05;;;;;;;;;;6265466;28;20064;-79
2022/02/27 03:53:07;;;;;;;14.13;6.13;;;;;;;;;;6237707;28;20128;-81
2022/02/27 03:56:08;;;;;;;15.90;5.75;;;;;;;;;;6239554;28;20152;-81
2022/02/27 03:59:11;;;;;;;11.20;4.70;;;;;;;;;;6244019;28;20175;-81
2022/02/27 04:02:13;;;;;;;19.42;5.80;;;;;;;;;;6243506;28;20038;-81
2022/02/27 04:05:18;;;;;;;19.02;6.00;;;;;;;;;;6228557;28;20145;-80
2022/02/27 04:08:19;;;;;;;13.63;5.68;;;;;;;;;;6273873;28;20100;-80
2022/02/27 04:11:21;;;;;;;12.73;4.75;;;;;;;;;;6252171;28;20058;-81
2022/02/27 04:14:22;;;;;;;8.40;4.05;;;;;;;;;;6234365;28;20052;-81
2022/02/27 04:17:24;;;;;;;13.20;4.53;;;;;;;;;;6219346;28;20115;-81
2022/02/27 04:20:26;;;;;;;13.23;4.70;;;;;;;;;;6226438;28;20050;-81
2022/02/27 04:23:27;;;;;;;9.77;3.92;;;;;;;;;;6241877;28;20044;-81
2022/02/27 04:26:29;;;;;;;11.73;4.18;;;;;;;;;;6242204;28;20414;-81
2022/02/27 04:29:31;;;;;;;10.55;4.57;;;;;;;;;;6240675;28;20069;-81
2022/02/27 04:32:32;;;;;;;10.38;4.60;;;;;;;;;;6241094;28;20188;-80
2022/02/27 04:35:34;;;;;;;11.50;4.63;;;;;;;;;;6239403;28;20460;-80
2022/02/27 04:38:36;;;;;;;9.70;5.43;;;;;;;;;;6243238;28;20117;-80
2022/02/27 04:41:40;;;;;;;21.50;8.48;;;;;;;;;;6248053;28;20038;-81
2022/02/27 04:44:41;;;;;;;12.18;6.30;;;;;;;;;;6218796;28;20116;-81
2022/02/27 04:47:43;;;;;;;13.05;5.85;;;;;;;;;;6271038;28;20052;-81
2022/02/27 04:50:45;;;;;;;15.23;8.07;;;;;;;;;;6247779;28;20065;-81
2022/02/27 04:53:49;;;;;;;10.82;5.25;;;;;;;;;;6217897;28;20569;-81
2022/02/27 04:56:51;;;;;;;10.05;5.50;;;;;;;;;;6242843;28;20580;-81
2022/02/27 04:59:52;;;;;;;15.10;7.22;;;;;;;;;;6243786;28;20069;-81
2022/02/27 05:02:54;;;;;;;11.63;6.50;;;;;;;;;;6242827;28;20089;-80
2022/02/27 05:05:56;;;;;;;9.52;4.93;;;;;;;;;;6242047;28;20046;-81
2022/02/27 05:08:58;;;;;;;14.27;5.65;;;;;;;;;;6266361;28;20112;-81
2022/02/27 05:12:00;;;;;;;12.40;5.78;;;;;;;;;;6258639;28;20046;-81
2022/02/27 05:15:01;;;;;;;15.70;6.50;;;;;;;;;;6233412;28;20140;-81
2022/02/27 05:18:08;;;;;;;13.80;5.53;;;;;;;;;;6201429;28;20503;-82
2022/02/27 05:21:10;;;;;;;9.85;5.28;;;;;;;;;;6217918;28;20494;-81
2022/02/27 05:24:12;;;;;;;15.80;5.45;;;;;;;;;;6233330;28;20093;-80
2022/02/27 05:27:15;;;;;;;16.27;5.50;;;;;;;;;;6234034;28;20517;-80
2022/02/27 05:30:19;;;;;;;14.98;5.80;;;;;;;;;;6219051;28;20049;-81
2022/02/27 05:33:21;;;;;;;12.55;5.72;;;;;;;;;;6218984;28;20058;-81
2022/02/27 05:36:22;;;;;;;15.65;7.18;;;;;;;;;;6218558;28;20049;-80
2022/02/27 05:39:24;;;;;;;15.18;7.07;;;;;;;;;;6219219;28;20104;-80
2022/02/27 05:42:26;;;;;;;18.13;7.25;;;;;;;;;;6235760;28;20090;-81
2022/02/27 05:45:27;;;;;;;24.40;8.85;;;;;;;;;;6249017;28;20069;-81
2022/02/27 05:48:29;;;;;;;14.82;8.57;;;;;;;;;;6272085;28;20044;-81
2022/02/27 05:51:31;;;;;;;17.77;8.50;;;;;;;;;;6249957;28;20104;-81
2022/02/27 05:54:32;;;;;;;29.42;10.05;;;;;;;;;;6247190;28;20521;-81
2022/02/27 05:57:34;;;;;;;19.67;8.48;;;;;;;;;;6248073;28;20191;-81
2022/02/27 06:00:35;;;;;;;26.67;9.82;;;;;;;;;;6248746;28;20083;-82
2022/02/27 06:03:38;;;;;;;33.42;13.35;;;;;;;;;;6249464;28;20041;-81
2022/02/27 06:06:39;;;;;;;18.63;6.80;;;;;;;;;;6265119;28;20079;-80
2022/02/27 06:09:41;;;;;;;10.77;3.78;;;;;;;;;;6250099;28;20060;-82
2022/02/27 06:12:50;;;;;;;9.98;3.90;;;;;;;;;;6229371;28;20080;-82
2022/02/27 06:15:52;;;;;;;11.00;4.38;;;;;;;;;;6242901;28;20049;-80
2022/02/27 06:18:53;;;;;;;8.13;4.07;;;;;;;;;;6225674;28;20045;-79
2022/02/27 06:21:55;;;;;;;10.93;3.85;;;;;;;;;;6226744;28;20048;-78
2022/02/27 06:24:57;;;;;;;8.23;3.83;;;;;;;;;;6225597;28;20390;-79
2022/02/27 06:27:59;;;;;;;14.07;4.80;;;;;;;;;;6225071;28;20061;-79
2022/02/27 06:31:01;;;;;;;8.93;4.13;;;;;;;;;;6241152;28;20073;-78
2022/02/27 06:34:03;;;;;;;13.35;6.60;;;;;;;;;;6227341;28;20052;-78
2022/02/27 06:37:05;;;;;;;13.00;5.45;;;;;;;;;;6266569;28;20042;-78
2022/02/27 06:40:08;;;;;;;16.20;5.28;;;;;;;;;;6250172;28;20061;-77
2022/02/27 06:43:09;;;;;;;;;;;;;;;;;;6248060;28;20132;-79
2022/02/27 06:46:11;;;;;;;12.60;5.00;;;;;;;;;;6253921;28;19920;-80
2022/02/27 06:49:13;;;;;;;14.10;6.40;;;;;;;;;;6257181;28;20052;-79
2022/02/27 06:52:14;;;;;;;19.88;7.90;;;;;;;;;;6224020;28;20085;-80
2022/02/27 06:55:17;;;;;;;14.52;6.82;;;;;;;;;;6238134;28;20038;-79
2022/02/27 06:58:19;;;;;;;17.05;6.43;;;;;;;;;;6260808;28;20141;-81
2022/02/27 07:01:21;;;;;;;17.80;7.33;;;;;;;;;;6246695;28;20045;-79
2022/02/27 07:04:23;;;;;;;20.30;7.22;;;;;;;;;;6239729;28;20045;-80
2022/02/27 07:07:24;;;;;;;14.57;6.15;;;;;;;;;;6234467;28;20119;-80
2022/02/27 07:10:26;;;;;;;14.57;5.93;;;;;;;;;;6248373;28;20114;-80
2022/02/27 07:13:27;;;;;;;14.00;7.30;;;;;;;;;;6220651;28;20482;-80
2022/02/27 07:16:29;;;;;;;11.52;6.15;;;;;;;;;;6219448;28;20433;-80
2022/02/27 07:19:31;;;;;;;15.13;6.57;;;;;;;;;;6218006;28;20109;-80
2022/02/27 07:22:36;;;;;;;12.90;5.88;;;;;;;;;;6238058;28;20119;-79
2022/02/27 07:25:38;;;;;;;17.38;6.80;;;;;;;;;;6220423;28;20096;-79
2022/02/27 07:28:40;;;;;;;19.70;7.43;;;;;;;;;;6223504;28;20049;-79
2022/02/27 07:31:42;;;;;;;19.23;7.78;;;;;;;;;;6222798;28;20042;-81
2022/02/27 07:34:44;;;;;;;26.23;10.18;;;;;;;;;;6233622;28;20150;-81
2022/02/27 07:37:46;;;;;;;24.65;8.45;;;;;;;;;;6245791;28;20045;-81
2022/02/27 07:40:49;;;;;;;28.80;15.15;;;;;;;;;;6257590;28;20152;-80
2022/02/27 07:43:51;;;;;;;19.98;10.35;;;;;;;;;;6220400;28;20205;-81
2022/02/27 07:46:55;;;;;;;19.10;8.63;;;;;;;;;;6244194;28;20041;-80
2022/02/27 07:49:59;;;;;;;14.57;7.15;;;;;;;;;;6255461;28;20049;-80
2022/02/27 07:53:01;;;;;;;16.33;7.93;;;;;;;;;;6258481;28;20046;-81
2022/02/27 07:56:02;;;;;;;19.20;8.73;;;;;;;;;;6235944;28;20092;-81
2022/02/27 07:59:04;;;;;;;29.73;11.15;;;;;;;;;;6235291;28;20054;-80
2022/02/27 08:02:11;;;;;;;22.90;10.13;;;;;;;;;;6220145;28;20337;-81
2022/02/27 08:05:13;;;;;;;21.08;8.07;;;;;;;;;;6219889;28;20384;-81
2022/02/27 08:08:14;;;;;;;14.40;7.95;;;;;;;;;;6239698;28;20069;-83
2022/02/27 08:11:16;;;;;;;12.55;6.22;;;;;;;;;;6243749;28;20131;-84
2022/02/27 08:14:18;;;;;;;16.88;6.00;;;;;;;;;;6245100;28;20608;-83
2022/02/27 08:17:20;;;;;;;19.15;8.25;;;;;;;;;;6247761;28;20041;-81
2022/02/27 08:20:22;;;;;;;9.45;4.90;;;;;;;;;;6237492;28;20104;-82
2022/02/27 08:23:24;;;;;;;11.00;5.75;;;;;;;;;;6221874;28;20119;-82
2022/02/27 08:26:25;;;;;;;12.55;4.93;;;;;;;;;;6236195;28;20062;-81
2022/02/27 08:29:27;;;;;;;13.65;5.15;;;;;;;;;;6219696;28;20045;-82
2022/02/27 08:32:29;;;;;;;14.60;5.50;;;;;;;;;;6241216;28;20115;-82
2022/02/27 08:35:30;;;;;;;13.98;5.18;;;;;;;;;;6233327;28;20128;-81
2022/02/27 08:38:32;;;;;;;14.40;7.60;;;;;;;;;;6231905;28;20053;-82
2022/02/27 08:41:35;;;;;;;12.15;7.13;;;;;;;;;;6230360;28;20042;-81
2022/02/27 08:44:38;;;;;;;8.93;5.05;;;;;;;;;;6242863;28;20041;-83
2022/02/27 08:47:40;;;;;;;10.17;4.07;;;;;;;;;;6242896;28;20041;-82
2022/02/27 08:50:42;;;;;;;9.32;4.72;;;;;;;;;;6228453;28;20041;-83
2022/02/27 08:53:43;;;;;;;12.23;4.93;;;;;;;;;;6243488;28;20220;-81
2022/02/27 08:56:45;;;;;;;11.70;4.47;;;;;;;;;;6244406;28;20053;-83
2022/02/27 08:59:46;;;;;;;10.27;4.30;;;;;;;;;;6231552;28;20045;-83
2022/02/27 09:02:49;;;;;;;9.02;3.90;;;;;;;;;;6237146;28;20658;-81
2022/02/27 09:05:51;;;;;;;11.65;4.20;;;;;;;;;;6226753;28;20136;-81
2022/02/27 09:08:53;;;;;;;10.60;5.65;;;;;;;;;;6242136;28;20049;-82
2022/02/27 09:11:57;;;;;;;10.80;4.70;;;;;;;;;;6229365;28;20120;-82
2022/02/27 09:14:59;;;;;;;16.45;4.28;;;;;;;;;;6232390;28;20509;-81
2022/02/27 09:18:00;;;;;;;10.25;4.63;;;;;;;;;;6219832;28;20153;-83
2022/02/27 09:21:03;;;;;;;12.88;8.93;;;;;;;;;;6220567;28;20171;-80
2022/02/27 09:24:05;;;;;;;10.35;4.90;;;;;;;;;;6233904;28;20060;-80
2022/02/27 09:27:07;;;;;;;9.65;3.72;;;;;;;;;;6249893;28;20084;-81
2022/02/27 09:30:09;;;;;;;9.77;3.25;;;;;;;;;;6264218;28;20842;-81
2022/02/27 09:33:11;;;;;;;10.30;4.00;;;;;;;;;;6247613;28;20049;-81
2022/02/27 09:36:12;;;;;;;5.63;2.97;;;;;;;;;;6247078;28;20155;-81
2022/02/27 09:39:16;;;;;;;6.78;3.60;;;;;;;;;;6247989;28;20051;-82
2022/02/27 09:42:18;;;;;;;11.07;3.00;;;;;;;;;;6247821;28;20045;-82
2022/02/27 09:45:22;;;;;;;7.05;3.10;;;;;;;;;;6247675;28;20049;-83
2022/02/27 09:48:23;;;;;;;7.43;3.85;;;;;;;;;;6270031;28;20056;-82
2022/02/27 09:51:25;;;;;;;8.93;3.30;;;;;;;;;;6244521;28;20052;-82
2022/02/27 09:54:27;;;;;;;7.15;3.13;;;;;;;;;;6246707;28;20057;-82
2022/02/27 09:57:34;;;;;;;6.88;2.40;;;;;;;;;;6244589;28;20103;-83
2022/02/27 10:00:36;;;;;;;6.07;3.20;;;;;;;;;;6247484;28;20044;-83
2022/02/27 10:03:38;;;;;;;5.43;2.33;;;;;;;;;;6248190;28;20041;-83
2022/02/27 10:06:47;;;;;;;9.50;2.90;;;;;;;;;;6255518;28;20186;-83
2022/02/27 10:09:49;;;;;;;4.60;2.85;;;;;;;;;;6275815;28;20169;-84
2022/02/27 10:12:52;;;;;;;5.60;2.55;;;;;;;;;;6233799;28;20053;-82
2022/02/27 10:16:02;;;;;;;6.18;3.00;;;;;;;;;;6221574;28;20053;-83
2022/02/27 10:19:05;;;;;;;7.75;3.00;;;;;;;;;;6220195;28;20136;-82
2022/02/27 10:22:08;;;;;;;7.40;2.80;;;;;;;;;;6219917;28;20098;-82
2022/02/27 10:25:12;;;;;;;6.68;2.78;;;;;;;;;;6220938;28;20161;-80
2022/02/27 10:28:14;;;;;;;5.75;2.75;;;;;;;;;;6239077;28;20041;-80
2022/02/27 10:31:18;;;;;;;6.05;2.72;;;;;;;;;;6243553;28;20097;-80
2022/02/27 10:34:30;;;;;;;8.27;2.92;;;;;;;;;;6258839;28;20499;-81
2022/02/27 10:37:32;;;;;;;4.00;2.50;;;;;;;;;;6245271;28;20100;-81
2022/02/27 10:40:40;;;;;;;6.63;2.70;;;;;;;;;;6258806;28;20075;-82
2022/02/27 10:43:45;;;;;;;7.40;2.95;;;;;;;;;;6235391;28;20109;-81
2022/02/27 10:46:47;;;;;;;7.65;2.97;;;;;;;;;;6257829;28;20072;-81
2022/02/27 10:49:51;;;;;;;5.13;2.35;;;;;;;;;;6234586;28;20526;-81
2022/02/27 10:52:53;;;;;;;6.35;2.67;;;;;;;;;;6242484;28;20046;-81
2022/02/27 10:55:58;;;;;;;7.18;3.20;;;;;;;;;;6242969;28;20502;-81
2022/02/27 10:59:12;;;;;;;5.18;2.95;;;;;;;;;;6233260;28;20042;-82
2022/02/27 11:02:14;;;;;;;4.95;2.50;;;;;;;;;;6235636;28;20052;-80
2022/02/27 11:05:18;;;;;;;6.88;3.03;;;;;;;;;;6233360;28;20044;-80
2022/02/27 11:08:20;;;;;;;5.45;3.00;;;;;;;;;;6263336;28;20493;-80
2022/02/27 11:11:23;;;;;;;9.75;4.82;;;;;;;;;;6258935;28;20041;-82
2022/02/27 11:14:25;;;;;;;4.63;2.63;;;;;;;;;;6242507;28;20055;-81
2022/02/27 11:17:27;;;;;;;4.25;2.40;;;;;;;;;;6260527;28;20483;-81
2022/02/27 11:20:29;;;;;;;6.23;3.27;;;;;;;;;;6244559;28;20123;-80
2022/02/27 11:23:32;;;;;;;8.13;3.15;;;;;;;;;;6243916;28;20447;-81
2022/02/27 11:26:33;;;;;;;7.60;3.37;;;;;;;;;;6232164;28;20085;-81
2022/02/27 11:29:35;;;;;;;13.63;4.68;;;;;;;;;;6219869;28;20050;-81
2022/02/27 11:32:46;;;;;;;5.72;2.78;;;;;;;;;;6220602;28;20061;-81
2022/02/27 11:35:55;;;;;;;6.27;2.40;;;;;;;;;;6234249;28;20041;-81
2022/02/27 11:39:01;;;;;;;4.90;2.30;;;;;;;;;;6260504;28;20055;-81
2022/02/27 11:42:03;;;;;;;4.10;2.20;;;;;;;;;;6232301;28;20045;-80
2022/02/27 11:45:08;;;;;;;4.20;2.58;;;;;;;;;;6236238;28;20718;-81
2022/02/27 11:48:10;;;;;;;5.47;2.50;;;;;;;;;;6263364;28;20059;-78
2022/02/27 11:51:37;;;;;;;7.35;3.10;;;;;;;;;;6243174;28;20135;-81
2022/02/27 11:54:41;;;;;;;6.78;3.58;;;;;;;;;;6243439;28;20154;-81
2022/02/27 11:57:44;;;;;;;4.47;2.75;;;;;;;;;;6258403;28;20144;-82
2022/02/27 12:00:46;;;;;;;3.97;2.08;;;;;;;;;;6241435;28;20105;-81
2022/02/27 12:03:48;;;;;;;4.78;2.33;;;;;;;;;;6244782;28;20049;-82
2022/02/27 12:07:05;;;;;;;4.13;2.50;;;;;;;;;;6251695;28;20207;-82
2022/02/27 12:10:07;;;;;;;4.63;2.45;;;;;;;;;;6266916;28;20041;-83
2022/02/27 12:13:25;;;;;;;4.93;2.40;;;;;;;;;;6245822;28;20122;-82
2022/02/27 12:16:36;;;;;;;5.03;2.63;;;;;;;;;;6259456;28;20045;-82
2022/02/27 12:19:44;;;;;;;4.63;2.50;;;;;;;;;;6253861;28;20056;-81
2022/02/27 12:22:46;;;;;;;5.00;2.60;;;;;;;;;;6232815;28;20050;-80
2022/02/27 12:25:47;;;;;;;5.65;3.10;;;;;;;;;;6218895;28;20046;-82
2022/02/27 12:28:54;;;;;;;5.35;2.45;;;;;;;;;;6216159;28;20129;-80
2022/02/27 12:32:02;;;;;;;5.55;2.47;;;;;;;;;;6231501;28;20569;-83
2022/02/27 12:35:05;;;;;;;4.90;2.60;;;;;;;;;;6218589;28;20046;-81
2022/02/27 12:38:10;;;;;;;6.75;2.92;;;;;;;;;;6240697;28;20105;-83
2022/02/27 12:41:17;;;;;;;5.65;2.58;;;;;;;;;;6241895;28;20060;-83
2022/02/27 12:44:25;;;;;;;8.13;2.63;;;;;;;;;;6246007;28;20108;-83
2022/02/27 12:47:26;;;;;;;9.27;3.60;;;;;;;;;;6260579;28;20048;-85
2022/02/27 12:50:31;;;;;;;6.55;2.88;;;;;;;;;;6252178;28;20128;-83
2022/02/27 12:53:34;;;;;;;5.68;3.55;;;;;;;;;;6242869;28;20158;-84
2022/02/27 12:56:36;;;;;;;5.28;2.72;;;;;;;;;;6242654;28;20041;-84
2022/02/27 12:59:40;;;;;;;4.95;3.17;;;;;;;;;;6257766;28;20050;-84
2022/02/27 13:02:42;;;;;;;6.22;2.28;;;;;;;;;;6244887;28;20041;-82
2022/02/27 13:05:44;;;;;;;5.53;2.05;;;;;;;;;;6230894;28;20431;-84
2022/02/27 13:08:49;;;;;;;6.43;3.45;;;;;;;;;;6241526;28;20125;-82
2022/02/27 13:11:51;;;;;;;6.55;2.90;;;;;;;;;;6250021;28;20045;-83
2022/02/27 13:14:58;;;;;;;7.93;3.33;;;;;;;;;;6238032;28;20064;-80
2022/02/27 13:18:04;;;;;;;7.18;3.10;;;;;;;;;;6231052;28;20045;-80
2022/02/27 13:21:08;;;;;;;5.38;2.30;;;;;;;;;;6266142;28;20410;-79
2022/02/27 13:24:11;;;;;;;4.93;2.20;;;;;;;;;;6244558;28;20128;-80
2022/02/27 13:27:22;;;;;;;10.40;6.18;;;;;;;;;;6229040;28;20151;-80
2022/02/27 13:30:26;;;;;;;12.70;5.53;;;;;;;;;;6241678;28;20053;-80
2022/02/27 13:33:27;;;;;;;4.05;2.28;;;;;;;;;;6241773;28;20053;-82
2022/02/27 13:36:34;;;;;;;7.38;3.28;;;;;;;;;;6245163;28;20042;-80
2022/02/27 13:39:37;;;;;;;4.70;2.63;;;;;;;;;;6227433;28;20061;-80
2022/02/27 13:42:38;;;;;;;4.63;2.28;;;;;;;;;;6242415;28;20083;-81
2022/02/27 13:45:44;;;;;;;5.88;2.30;;;;;;;;;;6246483;28;20211;-81
2022/02/27 13:48:46;;;;;;;5.00;1.98;;;;;;;;;;6236738;28;20081;-80
2022/02/27 13:51:47;;;;;;;8.77;3.45;;;;;;;;;;6245185;28;20132;-81
2022/02/27 13:54:52;;;;;;;3.72;2.15;;;;;;;;;;6260769;28;20053;-79
2022/02/27 13:58:02;;;;;;;3.60;2.03;;;;;;;;;;6235881;28;20050;-80
2022/02/27 14:01:06;;;;;;;5.28;2.75;;;;;;;;;;6249290;28;20053;-81
2022/02/27 14:04:08;;;;;;;3.10;2.17;;;;;;;;;;6245405;28;20496;-81
2022/02/27 14:07:14;;;;;;;5.03;2.63;;;;;;;;;;6230991;28;20100;-80
2022/02/27 14:10:27;;;;;;;6.28;2.58;;;;;;;;;;6246640;28;20083;-80
2022/02/27 14:13:29;;;;;;;3.38;1.90;;;;;;;;;;6242126;28;20061;-79
2022/02/27 14:16:32;;;;;;;4.95;3.08;;;;;;;;;;6240140;28;20037;-80
2022/02/27 14:19:33;;;;;;;3.83;2.13;;;;;;;;;;6233736;28;20049;-80
2022/02/27 14:22:36;;;;;;;2.65;1.85;;;;;;;;;;6216513;28;20164;-79
2022/02/27 14:25:46;;;;;;;3.65;2.15;;;;;;;;;;6218331;28;20136;-79
2022/02/27 14:28:49;;;;;;;5.28;2.30;;;;;;;;;;6257121;28;20045;-82
2022/02/27 14:31:51;;;;;;;6.25;3.55;;;;;;;;;;6242104;28;20084;-80
2022/02/27 14:34:55;;;;;;;4.03;1.73;;;;;;;;;;6242383;28;20053;-80
2022/02/27 14:37:57;;;;;;;3.88;2.45;;;;;;;;;;6216801;28;20057;-80
2022/02/27 14:40:58;;;;;;;6.15;2.30;;;;;;;;;;6216407;28;20102;-79
2022/02/27 14:44:00;;;;;;;3.70;2.38;;;;;;;;;;6217860;28;20137;-81
2022/02/27 14:47:02;;;;;;;4.35;2.45;;;;;;;;;;6230703;28;20045;-79
2022/02/27 14:50:05;;;;;;;5.60;2.63;;;;;;;;;;6208366;28;20119;-80
2022/02/27 14:53:06;;;;;;;3.60;1.83;;;;;;;;;;6230720;28;20049;-81
2022/02/27 14:56:08;;;;;;;4.22;2.25;;;;;;;;;;6220527;28;20038;-80
2022/02/27 14:59:10;;;;;;;3.72;2.13;;;;;;;;;;6231557;28;20164;-81
2022/02/27 15:02:12;;;;;;;4.93;2.53;;;;;;;;;;6243633;28;20491;-79
2022/02/27 15:05:14;;;;;;;2.40;1.73;;;;;;;;;;6248989;28;20445;-81
2022/02/27 15:08:17;;;;;;;3.60;2.10;;;;;;;;;;6235653;28;21070;-80
2022/02/27 15:11:19;;;;;;;4.77;2.27;;;;;;;;;;6228858;28;20551;-80
2022/02/27 15:14:20;;;;;;;3.70;1.90;;;;;;;;;;6229860;28;20121;-80
2022/02/27 15:17:22;;;;;;;3.45;2.00;;;;;;;;;;6235048;28;20104;-78
2022/02/27 15:20:26;;;;;;;6.78;2.20;;;;;;;;;;6236835;28;20079;-80
2022/02/27 15:23:28;;;;;;;3.65;1.75;;;;;;;;;;6240676;28;20124;-80
2022/02/27 15:26:30;;;;;;;3.78;2.10;;;;;;;;;;6241806;28;20099;-81
2022/02/27 15:29:32;;;;;;;5.72;2.30;;;;;;;;;;6269234;28;20512;-81
2022/02/27 15:32:33;;;;;;;6.20;2.60;;;;;;;;;;6267387;28;20144;-80
2022/02/27 15:35:38;;;;;;;5.70;2.58;;;;;;;;;;6272738;28;20418;-81
2022/02/27 15:38:46;;;;;;;4.60;2.70;;;;;;;;;;6240563;28;20079;-80
2022/02/27 15:41:48;;;;;;;;;;;;;;;;;;6229483;28;20344;-81
2022/02/27 15:44:50;;;;;;;4.50;2.10;;;;;;;;;;6216077;28;20360;-81
2022/02/27 15:47:52;;;;;;;4.55;3.38;;;;;;;;;;6255273;28;20059;-82
2022/02/27 15:50:53;;;;;;;4.75;2.00;;;;;;;;;;6230308;28;20216;-82
2022/02/27 15:53:55;;;;;;;5.50;2.63;;;;;;;;;;6215778;28;20057;-81
2022/02/27 15:56:58;;;;;;;6.00;2.67;;;;;;;;;;6210302;28;20133;-81
2022/02/27 16:00:00;;;;;;;6.82;2.65;;;;;;;;;;6241239;28;20057;-81
2022/02/27 16:03:12;;;;;;;6.10;2.58;;;;;;;;;;6241372;28;20049;-81
2022/02/27 16:06:14;;;;;;;5.63;2.40;;;;;;;;;;6234778;28;20045;-80
2022/02/27 16:09:17;;;;;;;4.18;2.42;;;;;;;;;;6243144;28;20809;-81
2022/02/27 16:12:19;;;;;;;4.32;2.25;;;;;;;;;;6249327;28;20148;-78
2022/02/27 16:15:22;;;;;;;5.32;2.28;;;;;;;;;;6236910;28;20049;-80
2022/02/27 16:18:23;;;;;;;5.80;2.25;;;;;;;;;;6238021;28;20065;-80
2022/02/27 16:21:25;;;;;;;11.73;5.22;;;;;;;;;;6237100;28;20041;-81
2022/02/27 16:24:26;;;;;;;4.65;1.98;;;;;;;;;;6237219;28;20099;-81
2022/02/27 16:27:29;;;;;;;6.50;2.70;;;;;;;;;;6233974;28;20085;-79
2022/02/27 16:30:31;;;;;;;7.20;2.58;;;;;;;;;;6213436;28;20056;-79
2022/02/27 16:33:34;;;;;;;5.63;2.95;;;;;;;;;;6209932;28;20167;-80
2022/02/27 16:36:35;;;;;;;5.72;3.50;;;;;;;;;;6236434;28;20048;-80
2022/02/27 16:39:37;;;;;;;6.45;3.40;;;;;;;;;;6234579;28;20518;-79
2022/02/27 16:42:39;;;;;;;12.63;4.63;;;;;;;;;;6221059;28;20045;-78
2022/02/27 16:45:41;;;;;;;6.93;3.80;;;;;;;;;;6216691;28;20038;-79
2022/02/27 16:48:43;;;;;;;8.20;4.28;;;;;;;;;;6252960;28;20049;-80
2022/02/27 16:51:45;;;;;;;11.70;4.97;;;;;;;;;;6236255;28;20100;-80
2022/02/27 16:54:46;;;;;;;12.65;5.43;;;;;;;;;;6215441;28;20144;-80
2022/02/27 16:57:48;;;;;;;6.60;3.92;;;;;;;;;;6214455;28;20049;-80
2022/02/27 17:01:16;;;;;;;6.82;3.10;;;;;;;;;;6219951;28;20075;-80
2022/02/27 17:04:18;;;;;;;7.35;3.40;;;;;;;;;;6234466;28;20065;-81
2022/02/27 17:07:19;;;;;;;6.65;3.70;;;;;;;;;;6234368;28;20045;-80
2022/02/27 17:10:21;;;;;;;4.18;2.58;;;;;;;;;;6254310;28;20047;-79
2022/02/27 17:13:24;;;;;;;4.90;2.97;;;;;;;;;;6241823;28;20951;-80
2022/02/27 17:16:26;;;;;;;5.87;2.77;;;;;;;;;;6242458;28;20060;-83
2022/02/27 17:19:28;;;;;;;8.15;4.07;;;;;;;;;;6240448;28;20042;-82
2022/02/27 17:22:29;;;;;;;7.78;4.65;;;;;;;;;;6244485;28;20041;-82
2022/02/27 17:25:36;;;;;;;8.77;4.00;;;;;;;;;;6243970;28;20048;-82
2022/02/27 17:28:38;;;;;;;8.20;4.53;;;;;;;;;;6244364;28;20101;-81
2022/02/27 17:31:39;;;;;;;7.60;4.40;;;;;;;;;;6222270;28;20049;-83
2022/02/27 17:34:41;;;;;;;9.85;5.07;;;;;;;;;;6216461;28;20049;-81
2022/02/27 17:37:43;;;;;;;8.48;4.97;;;;;;;;;;6235020;28;20123;-82
2022/02/27 17:40:45;;;;;;;3.88;3.20;;;;;;;;;;6241377;28;20045;-80
2022/02/27 17:43:46;;;;;;;3.95;2.33;;;;;;;;;;6220852;28;20046;-79
2022/02/27 17:46:48;;;;;;;6.35;3.65;;;;;;;;;;6242255;28;20049;-80
2022/02/27 17:49:50;;;;;;;4.18;2.20;;;;;;;;;;6262487;28;20041;-80
2022/02/27 17:52:51;;;;;;;5.70;2.58;;;;;;;;;;6263103;28;20046;-80
2022/02/27 17:55:53;;;;;;;3.53;2.85;;;;;;;;;;6244514;28;20155;-80
2022/02/27 17:58:55;;;;;;;4.45;2.70;;;;;;;;;;6219939;28;20154;-80
2022/02/27 18:01:56;;;;;;;6.28;3.88;;;;;;;;;;6222320;28;20124;-80
2022/02/27 18:04:58;;;;;;;9.25;4.63;;;;;;;;;;6243299;28;20052;-81
2022/02/27 18:08:00;;;;;;;20.92;7.95;;;;;;;;;;6243819;28;20140;-80